sensor_id;sensor_type;location;lat;lon;timestamp;pressure;altitude;pressure_sealevel;temperature;humidity
44441;BME280;30146;52.268;20.944;2023-03-26T00:01:42;99056.40;;;9.07;63.42
44441;BME280;30146;52.268;20.944;2023-03-26T00:04:16;99054.25;;;9.04;63.50
44441;BME280;30146;52.268;20.944;2023-03-26T00:06:48;99060.00;;;8.99;63.58
44441;BME280;30146;52.268;20.944;2023-03-26T00:09:19;99058.89;;;8.95;63.35
44441;BME280;30146;52.268;20.944;2023-03-26T00:11:50;99058.81;;;8.92;63.64
44441;BME280;30146;52.268;20.944;2023-03-26T00:14:21;99056.66;;;8.89;63.84
44441;BME280;30146;52.268;20.944;2023-03-26T00:16:52;99053.48;;;8.85;63.84
44441;BME280;30146;52.268;20.944;2023-03-26T00:19:24;99050.86;;;8.82;63.84
44441;BME280;30146;52.268;20.944;2023-03-26T00:21:56;99046.55;;;8.77;63.82
44441;BME280;30146;52.268;20.944;2023-03-26T00:24:27;99045.83;;;8.71;63.62
44441;BME280;30146;52.268;20.944;2023-03-26T00:26:59;99044.95;;;8.64;63.77
44441;BME280;30146;52.268;20.944;2023-03-26T00:29:30;99048.35;;;8.57;63.59
44441;BME280;30146;52.268;20.944;2023-03-26T00:32:02;99044.22;;;8.51;63.66
44441;BME280;30146;52.268;20.944;2023-03-26T00:34:33;99044.70;;;8.45;63.58
44441;BME280;30146;52.268;20.944;2023-03-26T00:37:04;99039.50;;;8.40;63.80
44441;BME280;30146;52.268;20.944;2023-03-26T00:39:35;99037.38;;;8.35;63.90
44441;BME280;30146;52.268;20.944;2023-03-26T00:42:08;99036.08;;;8.33;63.94
44441;BME280;30146;52.268;20.944;2023-03-26T00:44:39;99031.71;;;8.29;63.95
44441;BME280;30146;52.268;20.944;2023-03-26T00:47:10;99031.08;;;8.27;64.10
44441;BME280;30146;52.268;20.944;2023-03-26T00:49:41;99030.27;;;8.25;64.16
44441;BME280;30146;52.268;20.944;2023-03-26T00:52:15;99033.05;;;8.22;64.13
44441;BME280;30146;52.268;20.944;2023-03-26T00:54:49;99031.57;;;8.20;64.24
44441;BME280;30146;52.268;20.944;2023-03-26T00:57:21;99033.81;;;8.18;64.21
44441;BME280;30146;52.268;20.944;2023-03-26T01:00:07;99031.84;;;8.16;64.15
44441;BME280;30146;52.268;20.944;2023-03-26T01:02:39;99033.54;;;8.15;64.32
44441;BME280;30146;52.268;20.944;2023-03-26T01:08:21;99033.71;;;8.15;64.41
44441;BME280;30146;52.268;20.944;2023-03-26T01:10:55;99032.19;;;8.15;64.32
44441;BME280;30146;52.268;20.944;2023-03-26T01:13:34;99032.02;;;8.14;64.45
44441;BME280;30146;52.268;20.944;2023-03-26T01:16:13;99029.77;;;8.17;64.49
44441;BME280;30146;52.268;20.944;2023-03-26T01:18:49;99027.85;;;8.19;64.68
44441;BME280;30146;52.268;20.944;2023-03-26T01:21:23;99030.54;;;8.20;64.56
44441;BME280;30146;52.268;20.944;2023-03-26T01:24:01;99025.39;;;8.22;64.66
44441;BME280;30146;52.268;20.944;2023-03-26T01:26:48;99022.77;;;8.26;64.56
44441;BME280;30146;52.268;20.944;2023-03-26T01:29:29;99019.15;;;8.27;64.71
44441;BME280;30146;52.268;20.944;2023-03-26T01:32:08;99017.09;;;8.28;64.38
44441;BME280;30146;52.268;20.944;2023-03-26T01:34:51;99015.86;;;8.30;64.53
44441;BME280;30146;52.268;20.944;2023-03-26T01:37:32;99012.25;;;8.32;64.53
44441;BME280;30146;52.268;20.944;2023-03-26T01:40:16;99008.99;;;8.33;64.61
44441;BME280;30146;52.268;20.944;2023-03-26T01:42:53;99001.48;;;8.34;64.50
44441;BME280;30146;52.268;20.944;2023-03-26T01:45:29;99005.55;;;8.35;64.46
44441;BME280;30146;52.268;20.944;2023-03-26T01:48:02;98999.73;;;8.36;64.82
44441;BME280;30146;52.268;20.944;2023-03-26T01:50:33;98994.61;;;8.37;64.57
44441;BME280;30146;52.268;20.944;2023-03-26T01:53:05;98994.99;;;8.35;64.34
44441;BME280;30146;52.268;20.944;2023-03-26T01:55:44;98989.92;;;8.33;64.44
44441;BME280;30146;52.268;20.944;2023-03-26T01:58:27;98991.18;;;8.30;64.35
44441;BME280;30146;52.268;20.944;2023-03-26T02:01:08;98988.98;;;8.29;64.61
44441;BME280;30146;52.268;20.944;2023-03-26T02:03:49;98989.50;;;8.29;64.53
44441;BME280;30146;52.268;20.944;2023-03-26T02:06:28;98984.57;;;8.28;64.79
44441;BME280;30146;52.268;20.944;2023-03-26T02:09:05;98982.16;;;8.30;64.90
44441;BME280;30146;52.268;20.944;2023-03-26T02:11:39;98976.52;;;8.32;64.86
44441;BME280;30146;52.268;20.944;2023-03-26T02:14:11;98974.11;;;8.33;64.85
44441;BME280;30146;52.268;20.944;2023-03-26T02:16:43;98970.70;;;8.33;64.73
44441;BME280;30146;52.268;20.944;2023-03-26T02:19:16;98970.31;;;8.34;64.77
44441;BME280;30146;52.268;20.944;2023-03-26T02:21:51;98967.08;;;8.35;64.77
44441;BME280;30146;52.268;20.944;2023-03-26T02:24:22;98964.66;;;8.36;64.95
44441;BME280;30146;52.268;20.944;2023-03-26T02:26:55;98963.09;;;8.38;64.88
44441;BME280;30146;52.268;20.944;2023-03-26T02:29:29;98964.13;;;8.37;64.85
44441;BME280;30146;52.268;20.944;2023-03-26T02:32:04;98959.73;;;8.36;64.71
44441;BME280;30146;52.268;20.944;2023-03-26T02:34:35;98962.84;;;8.34;64.82
44441;BME280;30146;52.268;20.944;2023-03-26T02:37:07;98960.16;;;8.32;64.77
44441;BME280;30146;52.268;20.944;2023-03-26T02:39:41;98960.38;;;8.28;64.84
44441;BME280;30146;52.268;20.944;2023-03-26T02:42:19;98960.44;;;8.26;64.79
44441;BME280;30146;52.268;20.944;2023-03-26T02:44:51;98961.06;;;8.21;64.86
44441;BME280;30146;52.268;20.944;2023-03-26T02:47:22;98962.48;;;8.19;64.80
44441;BME280;30146;52.268;20.944;2023-03-26T02:49:53;98961.88;;;8.15;64.96
44441;BME280;30146;52.268;20.944;2023-03-26T02:52:41;98956.17;;;8.12;64.90
44441;BME280;30146;52.268;20.944;2023-03-26T02:55:12;98957.36;;;8.11;65.07
44441;BME280;30146;52.268;20.944;2023-03-26T02:57:44;98959.08;;;8.12;65.25
44441;BME280;30146;52.268;20.944;2023-03-26T03:00:21;98956.68;;;8.11;65.26
44441;BME280;30146;52.268;20.944;2023-03-26T03:03:10;98955.67;;;8.11;65.34
44441;BME280;30146;52.268;20.944;2023-03-26T03:06:17;98954.66;;;8.11;65.21
44441;BME280;30146;52.268;20.944;2023-03-26T03:08:53;98959.09;;;8.11;65.32
44441;BME280;30146;52.268;20.944;2023-03-26T03:11:37;98959.59;;;8.11;65.38
44441;BME280;30146;52.268;20.944;2023-03-26T03:14:09;98962.16;;;8.10;65.29
44441;BME280;30146;52.268;20.944;2023-03-26T03:16:40;98960.63;;;8.10;65.34
44441;BME280;30146;52.268;20.944;2023-03-26T03:19:16;98966.89;;;8.11;65.31
44441;BME280;30146;52.268;20.944;2023-03-26T03:21:49;98970.27;;;8.13;65.39
44441;BME280;30146;52.268;20.944;2023-03-26T03:24:20;98962.91;;;8.15;65.44
44441;BME280;30146;52.268;20.944;2023-03-26T03:26:52;98965.93;;;8.17;65.53
44441;BME280;30146;52.268;20.944;2023-03-26T03:29:37;98964.34;;;8.20;65.51
44441;BME280;30146;52.268;20.944;2023-03-26T03:32:34;98965.98;;;8.22;65.55
44441;BME280;30146;52.268;20.944;2023-03-26T03:35:06;98966.27;;;8.25;65.43
44441;BME280;30146;52.268;20.944;2023-03-26T03:37:38;98964.05;;;8.24;65.41
44441;BME280;30146;52.268;20.944;2023-03-26T03:40:11;98965.71;;;8.26;65.24
44441;BME280;30146;52.268;20.944;2023-03-26T03:42:42;98963.32;;;8.27;65.39
44441;BME280;30146;52.268;20.944;2023-03-26T03:45:14;98965.69;;;8.28;65.37
44441;BME280;30146;52.268;20.944;2023-03-26T03:47:48;98964.11;;;8.29;65.35
44441;BME280;30146;52.268;20.944;2023-03-26T03:50:24;98966.50;;;8.29;65.29
44441;BME280;30146;52.268;20.944;2023-03-26T03:53:07;98967.90;;;8.27;65.31
44441;BME280;30146;52.268;20.944;2023-03-26T03:55:38;98970.83;;;8.26;65.35
44441;BME280;30146;52.268;20.944;2023-03-26T03:58:10;98970.67;;;8.25;65.37
44441;BME280;30146;52.268;20.944;2023-03-26T04:00:43;98969.16;;;8.24;65.15
44441;BME280;30146;52.268;20.944;2023-03-26T04:03:43;98971.25;;;8.22;65.22
44441;BME280;30146;52.268;20.944;2023-03-26T04:06:16;98965.13;;;8.22;65.47
44441;BME280;30146;52.268;20.944;2023-03-26T04:08:52;98964.96;;;8.22;65.38
44441;BME280;30146;52.268;20.944;2023-03-26T04:11:23;98962.77;;;8.21;65.32
44441;BME280;30146;52.268;20.944;2023-03-26T04:14:11;98959.94;;;8.19;65.47
44441;BME280;30146;52.268;20.944;2023-03-26T04:16:56;98959.81;;;8.17;65.29
44441;BME280;30146;52.268;20.944;2023-03-26T04:19:27;98958.79;;;8.16;65.45
44441;BME280;30146;52.268;20.944;2023-03-26T04:21:58;98952.89;;;8.14;65.41
44441;BME280;30146;52.268;20.944;2023-03-26T04:24:34;98951.73;;;8.12;65.33
44441;BME280;30146;52.268;20.944;2023-03-26T04:27:29;98955.33;;;8.11;65.29
44441;BME280;30146;52.268;20.944;2023-03-26T04:30:22;98950.92;;;8.10;65.43
44441;BME280;30146;52.268;20.944;2023-03-26T04:33:10;98950.60;;;8.09;65.51
44441;BME280;30146;52.268;20.944;2023-03-26T04:35:44;98949.92;;;8.09;65.49
44441;BME280;30146;52.268;20.944;2023-03-26T04:38:18;98952.95;;;8.11;65.60
44441;BME280;30146;52.268;20.944;2023-03-26T04:40:51;98952.55;;;8.13;65.54
44441;BME280;30146;52.268;20.944;2023-03-26T04:43:42;98949.14;;;8.15;65.62
44441;BME280;30146;52.268;20.944;2023-03-26T04:46:21;98953.48;;;8.17;65.63
44441;BME280;30146;52.268;20.944;2023-03-26T04:49:03;98955.66;;;8.20;65.62
44441;BME280;30146;52.268;20.944;2023-03-26T04:51:37;98955.65;;;8.19;65.68
44441;BME280;30146;52.268;20.944;2023-03-26T04:54:24;98952.98;;;8.17;65.71
44441;BME280;30146;52.268;20.944;2023-03-26T04:57:02;98956.77;;;8.15;65.60
44441;BME280;30146;52.268;20.944;2023-03-26T04:59:47;98955.14;;;8.12;65.68
44441;BME280;30146;52.268;20.944;2023-03-26T05:02:19;98952.31;;;8.09;65.72
44441;BME280;30146;52.268;20.944;2023-03-26T05:04:53;98951.02;;;8.06;65.74
44441;BME280;30146;52.268;20.944;2023-03-26T05:07:26;98948.83;;;8.05;65.82
44441;BME280;30146;52.268;20.944;2023-03-26T05:09:59;98952.30;;;8.02;66.00
44441;BME280;30146;52.268;20.944;2023-03-26T05:12:42;98954.35;;;8.01;66.08
44441;BME280;30146;52.268;20.944;2023-03-26T05:15:20;98953.83;;;8.02;66.15
44441;BME280;30146;52.268;20.944;2023-03-26T05:18:08;98947.68;;;8.03;66.23
44441;BME280;30146;52.268;20.944;2023-03-26T05:20:45;98946.12;;;8.04;66.12
44441;BME280;30146;52.268;20.944;2023-03-26T05:23:16;98948.29;;;8.07;66.26
44441;BME280;30146;52.268;20.944;2023-03-26T05:25:53;98949.38;;;8.11;66.16
44441;BME280;30146;52.268;20.944;2023-03-26T05:28:26;98949.98;;;8.15;66.15
44441;BME280;30146;52.268;20.944;2023-03-26T05:31:09;98946.48;;;8.18;66.28
44441;BME280;30146;52.268;20.944;2023-03-26T05:33:41;98948.27;;;8.24;66.17
44441;BME280;30146;52.268;20.944;2023-03-26T05:36:14;98944.77;;;8.27;66.16
44441;BME280;30146;52.268;20.944;2023-03-26T05:38:49;98946.73;;;8.30;66.15
44441;BME280;30146;52.268;20.944;2023-03-26T05:45:37;98940.89;;;8.41;65.93
44441;BME280;30146;52.268;20.944;2023-03-26T05:48:21;98937.54;;;8.47;65.88
44441;BME280;30146;52.268;20.944;2023-03-26T05:50:55;98938.96;;;8.52;66.07
44441;BME280;30146;52.268;20.944;2023-03-26T05:53:28;98939.87;;;8.57;65.96
44441;BME280;30146;52.268;20.944;2023-03-26T05:56:18;98943.45;;;8.63;66.04
44441;BME280;30146;52.268;20.944;2023-03-26T05:59:07;98939.05;;;8.69;65.77
44441;BME280;30146;52.268;20.944;2023-03-26T06:01:57;98940.95;;;8.75;65.80
44441;BME280;30146;52.268;20.944;2023-03-26T06:04:46;98945.02;;;8.82;65.44
44441;BME280;30146;52.268;20.944;2023-03-26T06:07:46;98936.42;;;8.93;65.27
44441;BME280;30146;52.268;20.944;2023-03-26T06:10:20;98941.88;;;8.99;65.31
44441;BME280;30146;52.268;20.944;2023-03-26T06:12:52;98942.77;;;9.04;65.17
44441;BME280;30146;52.268;20.944;2023-03-26T06:15:24;98943.30;;;9.10;65.19
44441;BME280;30146;52.268;20.944;2023-03-26T06:18:01;98948.26;;;9.17;65.34
44441;BME280;30146;52.268;20.944;2023-03-26T06:21:00;98948.10;;;9.22;65.05
44441;BME280;30146;52.268;20.944;2023-03-26T06:23:42;98951.94;;;9.26;64.99
44441;BME280;30146;52.268;20.944;2023-03-26T06:26:30;98955.20;;;9.32;64.85
44441;BME280;30146;52.268;20.944;2023-03-26T06:29:19;98953.40;;;9.35;64.81
44441;BME280;30146;52.268;20.944;2023-03-26T06:32:00;98953.48;;;9.39;64.79
44441;BME280;30146;52.268;20.944;2023-03-26T06:34:52;98953.69;;;9.43;64.62
44441;BME280;30146;52.268;20.944;2023-03-26T06:37:23;98952.81;;;9.44;64.72
44441;BME280;30146;52.268;20.944;2023-03-26T06:39:59;98952.91;;;9.47;64.59
44441;BME280;30146;52.268;20.944;2023-03-26T06:42:56;98957.14;;;9.48;64.57
44441;BME280;30146;52.268;20.944;2023-03-26T06:45:55;98957.60;;;9.50;64.70
44441;BME280;30146;52.268;20.944;2023-03-26T06:48:52;98957.48;;;9.54;64.95
44441;BME280;30146;52.268;20.944;2023-03-26T06:51:42;98955.65;;;9.65;65.35
44441;BME280;30146;52.268;20.944;2023-03-26T06:54:33;98956.66;;;9.78;65.31
44441;BME280;30146;52.268;20.944;2023-03-26T06:57:24;98957.75;;;9.88;65.49
44441;BME280;30146;52.268;20.944;2023-03-26T07:00:16;98958.59;;;9.99;65.34
44441;BME280;30146;52.268;20.944;2023-03-26T07:03:06;98956.22;;;10.11;65.37
44441;BME280;30146;52.268;20.944;2023-03-26T07:06:15;98956.39;;;10.29;65.04
44441;BME280;30146;52.268;20.944;2023-03-26T07:09:27;98952.05;;;10.59;65.36
44441;BME280;30146;52.268;20.944;2023-03-26T07:12:40;98948.26;;;11.12;65.85
44441;BME280;30146;52.268;20.944;2023-03-26T07:15:31;98947.33;;;11.49;65.21
44441;BME280;30146;52.268;20.944;2023-03-26T07:18:29;98946.58;;;11.78;64.48
44441;BME280;30146;52.268;20.944;2023-03-26T07:21:26;98942.58;;;12.27;64.68
44441;BME280;30146;52.268;20.944;2023-03-26T07:24:02;98937.04;;;13.17;65.29
44441;BME280;30146;52.268;20.944;2023-03-26T07:27:45;98940.20;;;13.79;63.99
44441;BME280;30146;52.268;20.944;2023-03-26T07:31:02;98935.40;;;14.42;63.03
44441;BME280;30146;52.268;20.944;2023-03-26T07:34:25;98934.86;;;14.89;61.62
44441;BME280;30146;52.268;20.944;2023-03-26T07:37:54;98937.98;;;14.82;59.87
44441;BME280;30146;52.268;20.944;2023-03-26T07:44:46;98936.30;;;14.12;58.15
44441;BME280;30146;52.268;20.944;2023-03-26T07:48:08;98931.00;;;13.77;57.76
44441;BME280;30146;52.268;20.944;2023-03-26T07:55:40;98929.93;;;12.90;57.77
44441;BME280;30146;52.268;20.944;2023-03-26T07:59:08;98930.29;;;12.43;57.44
44441;BME280;30146;52.268;20.944;2023-03-26T08:02:26;98928.86;;;12.09;57.95
44441;BME280;30146;52.268;20.944;2023-03-26T08:05:19;98931.96;;;11.90;58.62
44441;BME280;30146;52.268;20.944;2023-03-26T08:08:28;98930.22;;;11.77;58.80
44441;BME280;30146;52.268;20.944;2023-03-26T08:11:27;98930.49;;;11.69;58.88
44441;BME280;30146;52.268;20.944;2023-03-26T08:14:13;98929.28;;;11.65;59.16
44441;BME280;30146;52.268;20.944;2023-03-26T08:16:54;98925.60;;;11.63;59.41
44441;BME280;30146;52.268;20.944;2023-03-26T08:19:39;98923.09;;;11.61;59.54
44441;BME280;30146;52.268;20.944;2023-03-26T08:22:15;98921.56;;;11.56;59.32
44441;BME280;30146;52.268;20.944;2023-03-26T08:24:59;98921.94;;;11.46;59.35
44441;BME280;30146;52.268;20.944;2023-03-26T08:30:53;98921.71;;;11.23;59.46
44441;BME280;30146;52.268;20.944;2023-03-26T08:33:37;98923.04;;;11.14;59.48
44441;BME280;30146;52.268;20.944;2023-03-26T08:36:34;98923.02;;;11.05;59.66
44441;BME280;30146;52.268;20.944;2023-03-26T08:49:27;98920.66;;;10.93;60.18
44441;BME280;30146;52.268;20.944;2023-03-26T08:52:35;98920.92;;;10.90;59.91
44441;BME280;30146;52.268;20.944;2023-03-26T08:55:41;98919.05;;;10.85;60.12
44441;BME280;30146;52.268;20.944;2023-03-26T08:58:51;98915.86;;;10.78;60.08
44441;BME280;30146;52.268;20.944;2023-03-26T09:01:43;98923.24;;;10.72;60.14
44441;BME280;30146;52.268;20.944;2023-03-26T09:14:19;98918.85;;;10.92;60.85
44441;BME280;30146;52.268;20.944;2023-03-26T09:17:30;98915.98;;;11.20;61.27
44441;BME280;30146;52.268;20.944;2023-03-26T09:26:30;98894.73;;;12.58;60.70
44441;BME280;30146;52.268;20.944;2023-03-26T09:29:47;98891.49;;;12.74;60.15
44441;BME280;30146;52.268;20.944;2023-03-26T09:35:53;98890.52;;;12.97;58.90
44441;BME280;30146;52.268;20.944;2023-03-26T09:38:37;98894.52;;;13.01;58.46
44441;BME280;30146;52.268;20.944;2023-03-26T09:41:17;98894.89;;;13.00;58.35
44441;BME280;30146;52.268;20.944;2023-03-26T09:47:25;98903.79;;;12.63;57.07
44441;BME280;30146;52.268;20.944;2023-03-26T09:50:31;98900.41;;;12.36;57.14
44441;BME280;30146;52.268;20.944;2023-03-26T09:53:17;98905.59;;;12.22;57.48
44441;BME280;30146;52.268;20.944;2023-03-26T09:56:08;98898.80;;;12.07;57.28
44441;BME280;30146;52.268;20.944;2023-03-26T09:59:39;98897.81;;;11.97;57.45
44441;BME280;30146;52.268;20.944;2023-03-26T10:02:20;98893.05;;;11.97;57.68
44441;BME280;30146;52.268;20.944;2023-03-26T10:05:26;98891.29;;;12.02;58.12
44441;BME280;30146;52.268;20.944;2023-03-26T10:08:11;98891.33;;;12.19;58.40
44441;BME280;30146;52.268;20.944;2023-03-26T10:11:26;98900.30;;;12.34;58.39
44441;BME280;30146;52.268;20.944;2023-03-26T10:14:11;98901.67;;;12.34;58.10
44441;BME280;30146;52.268;20.944;2023-03-26T10:17:03;98895.65;;;12.26;57.98
44441;BME280;30146;52.268;20.944;2023-03-26T10:19:47;98896.87;;;12.17;58.05
44441;BME280;30146;52.268;20.944;2023-03-26T10:22:34;98895.73;;;12.11;58.08
44441;BME280;30146;52.268;20.944;2023-03-26T10:25:24;98888.86;;;12.21;58.60
44441;BME280;30146;52.268;20.944;2023-03-26T10:28:12;98883.33;;;12.34;58.84
44441;BME280;30146;52.268;20.944;2023-03-26T10:30:56;98885.61;;;12.59;58.87
44441;BME280;30146;52.268;20.944;2023-03-26T10:33:40;98875.70;;;12.87;58.85
44441;BME280;30146;52.268;20.944;2023-03-26T10:36:31;98873.56;;;13.16;58.70
44441;BME280;30146;52.268;20.944;2023-03-26T10:39:23;98869.64;;;13.44;58.37
44441;BME280;30146;52.268;20.944;2023-03-26T10:42:18;98874.88;;;13.61;57.84
44441;BME280;30146;52.268;20.944;2023-03-26T10:45:09;98882.17;;;13.63;56.77
44441;BME280;30146;52.268;20.944;2023-03-26T10:47:56;98896.60;;;13.52;55.99
44441;BME280;30146;52.268;20.944;2023-03-26T10:50:36;98895.65;;;13.26;55.57
44441;BME280;30146;52.268;20.944;2023-03-26T10:53:24;98889.55;;;12.96;55.55
44441;BME280;30146;52.268;20.944;2023-03-26T10:56:02;98885.84;;;12.70;55.69
44441;BME280;30146;52.268;20.944;2023-03-26T10:58:36;98883.23;;;12.54;56.11
44441;BME280;30146;52.268;20.944;2023-03-26T11:01:26;98882.07;;;12.53;56.78
44441;BME280;30146;52.268;20.944;2023-03-26T11:04:06;98874.92;;;12.64;57.17
44441;BME280;30146;52.268;20.944;2023-03-26T11:06:44;98875.40;;;12.69;57.07
44441;BME280;30146;52.268;20.944;2023-03-26T11:09:29;98870.82;;;12.81;57.51
44441;BME280;30146;52.268;20.944;2023-03-26T11:12:09;98868.64;;;12.99;57.60
44441;BME280;30146;52.268;20.944;2023-03-26T11:15:06;98868.66;;;13.11;57.46
44441;BME280;30146;52.268;20.944;2023-03-26T11:17:43;98869.26;;;13.14;57.31
44441;BME280;30146;52.268;20.944;2023-03-26T11:20:21;98868.34;;;13.15;57.25
44441;BME280;30146;52.268;20.944;2023-03-26T11:23:05;98863.84;;;13.12;56.76
44441;BME280;30146;52.268;20.944;2023-03-26T11:25:58;98872.58;;;13.00;56.35
44441;BME280;30146;52.268;20.944;2023-03-26T11:29:02;98875.67;;;12.84;56.21
44441;BME280;30146;52.268;20.944;2023-03-26T11:32:02;98873.02;;;12.65;56.25
44441;BME280;30146;52.268;20.944;2023-03-26T11:34:39;98873.98;;;12.50;56.38
44441;BME280;30146;52.268;20.944;2023-03-26T11:37:28;98874.41;;;12.39;56.56
44441;BME280;30146;52.268;20.944;2023-03-26T11:40:05;98880.71;;;12.31;56.77
44441;BME280;30146;52.268;20.944;2023-03-26T11:42:41;98880.29;;;12.25;56.74
44441;BME280;30146;52.268;20.944;2023-03-26T11:45:18;98879.42;;;12.21;56.56
44441;BME280;30146;52.268;20.944;2023-03-26T11:47:54;98874.13;;;12.20;56.54
44441;BME280;30146;52.268;20.944;2023-03-26T11:50:28;98876.69;;;12.25;56.53
44441;BME280;30146;52.268;20.944;2023-03-26T11:53:09;98870.04;;;12.33;56.62
44441;BME280;30146;52.268;20.944;2023-03-26T11:55:43;98871.18;;;12.42;56.80
44441;BME280;30146;52.268;20.944;2023-03-26T11:58:24;98866.80;;;12.49;56.71
44441;BME280;30146;52.268;20.944;2023-03-26T12:01:00;98868.73;;;12.52;56.23
44441;BME280;30146;52.268;20.944;2023-03-26T12:03:33;98878.52;;;12.51;55.88
44441;BME280;30146;52.268;20.944;2023-03-26T12:06:23;98877.25;;;12.54;55.87
44441;BME280;30146;52.268;20.944;2023-03-26T12:08:56;98875.45;;;12.56;55.89
44441;BME280;30146;52.268;20.944;2023-03-26T12:11:29;98872.89;;;12.56;55.93
44441;BME280;30146;52.268;20.944;2023-03-26T12:14:05;98875.30;;;12.55;55.96
44441;BME280;30146;52.268;20.944;2023-03-26T12:16:36;98874.11;;;12.60;56.01
44441;BME280;30146;52.268;20.944;2023-03-26T12:19:19;98868.79;;;12.72;56.30
44441;BME280;30146;52.268;20.944;2023-03-26T12:21:51;98869.31;;;12.80;56.26
44441;BME280;30146;52.268;20.944;2023-03-26T12:24:28;98870.05;;;12.83;56.28
44441;BME280;30146;52.268;20.944;2023-03-26T12:27:00;98871.29;;;12.82;56.02
44441;BME280;30146;52.268;20.944;2023-03-26T12:29:32;98877.45;;;12.78;55.72
44441;BME280;30146;52.268;20.944;2023-03-26T12:32:11;98876.89;;;12.75;55.63
44441;BME280;30146;52.268;20.944;2023-03-26T12:34:43;98870.95;;;12.78;55.69
44441;BME280;30146;52.268;20.944;2023-03-26T12:37:34;98867.05;;;12.81;55.66
44441;BME280;30146;52.268;20.944;2023-03-26T12:40:24;98859.39;;;12.87;55.33
44441;BME280;30146;52.268;20.944;2023-03-26T12:42:58;98857.15;;;13.00;55.37
44441;BME280;30146;52.268;20.944;2023-03-26T12:45:52;98852.98;;;13.13;55.33
44441;BME280;30146;52.268;20.944;2023-03-26T12:48:44;98852.11;;;13.29;55.28
44441;BME280;30146;52.268;20.944;2023-03-26T12:51:24;98859.63;;;13.42;54.98
44441;BME280;30146;52.268;20.944;2023-03-26T12:54:19;98848.48;;;13.53;54.31
44441;BME280;30146;52.268;20.944;2023-03-26T12:57:05;98854.77;;;13.58;53.87
44441;BME280;30146;52.268;20.944;2023-03-26T12:59:54;98851.56;;;13.57;53.21
44441;BME280;30146;52.268;20.944;2023-03-26T13:05:37;98857.75;;;13.41;52.57
44441;BME280;30146;52.268;20.944;2023-03-26T13:08:36;98860.69;;;13.33;52.34
44441;BME280;30146;52.268;20.944;2023-03-26T13:11:17;98857.44;;;13.28;52.19
44441;BME280;30146;52.268;20.944;2023-03-26T13:14:06;98857.13;;;13.32;52.53
44441;BME280;30146;52.268;20.944;2023-03-26T13:16:46;98851.70;;;13.39;52.80
44441;BME280;30146;52.268;20.944;2023-03-26T13:19:25;98849.62;;;13.47;52.82
44441;BME280;30146;52.268;20.944;2023-03-26T13:22:06;98849.63;;;13.54;52.82
44441;BME280;30146;52.268;20.944;2023-03-26T13:24:50;98848.09;;;13.61;52.68
44441;BME280;30146;52.268;20.944;2023-03-26T13:27:35;98845.76;;;13.68;52.52
44441;BME280;30146;52.268;20.944;2023-03-26T13:30:19;98842.91;;;13.74;52.29
44441;BME280;30146;52.268;20.944;2023-03-26T13:33:03;98848.89;;;13.78;52.09
44441;BME280;30146;52.268;20.944;2023-03-26T13:35:48;98846.17;;;13.81;52.04
44441;BME280;30146;52.268;20.944;2023-03-26T13:38:52;98842.81;;;13.83;52.24
44441;BME280;30146;52.268;20.944;2023-03-26T13:41:36;98841.41;;;13.80;52.25
44441;BME280;30146;52.268;20.944;2023-03-26T13:44:25;98840.27;;;13.78;52.25
44441;BME280;30146;52.268;20.944;2023-03-26T13:47:03;98854.45;;;13.73;51.83
44441;BME280;30146;52.268;20.944;2023-03-26T13:49:45;98853.21;;;13.66;51.50
44441;BME280;30146;52.268;20.944;2023-03-26T13:52:52;98849.00;;;13.60;51.43
44441;BME280;30146;52.268;20.944;2023-03-26T13:55:40;98850.17;;;13.57;51.31
44441;BME280;30146;52.268;20.944;2023-03-26T13:58:19;98847.92;;;13.58;51.28
44441;BME280;30146;52.268;20.944;2023-03-26T14:00:59;98847.75;;;13.54;51.11
44441;BME280;30146;52.268;20.944;2023-03-26T14:03:38;98849.03;;;13.52;51.29
44441;BME280;30146;52.268;20.944;2023-03-26T14:06:21;98850.73;;;13.56;51.61
44441;BME280;30146;52.268;20.944;2023-03-26T14:08:56;98852.60;;;13.61;51.79
44441;BME280;30146;52.268;20.944;2023-03-26T14:11:40;98848.34;;;13.63;51.79
44441;BME280;30146;52.268;20.944;2023-03-26T14:14:15;98855.12;;;13.62;51.75
44441;BME280;30146;52.268;20.944;2023-03-26T14:16:53;98854.41;;;13.55;51.38
44441;BME280;30146;52.268;20.944;2023-03-26T14:19:43;98859.30;;;13.45;51.13
44441;BME280;30146;52.268;20.944;2023-03-26T14:22:26;98861.17;;;13.38;51.10
44441;BME280;30146;52.268;20.944;2023-03-26T14:25:17;98870.02;;;13.36;51.15
44441;BME280;30146;52.268;20.944;2023-03-26T14:28:05;98868.33;;;13.35;50.97
44441;BME280;30146;52.268;20.944;2023-03-26T14:30:54;98870.16;;;13.33;50.72
44441;BME280;30146;52.268;20.944;2023-03-26T14:33:43;98861.62;;;13.27;50.47
44441;BME280;30146;52.268;20.944;2023-03-26T14:36:27;98862.05;;;13.17;50.30
44441;BME280;30146;52.268;20.944;2023-03-26T14:39:23;98864.11;;;13.09;50.48
44441;BME280;30146;52.268;20.944;2023-03-26T14:42:02;98865.95;;;13.02;50.51
44441;BME280;30146;52.268;20.944;2023-03-26T14:45:02;98867.52;;;12.98;50.59
44441;BME280;30146;52.268;20.944;2023-03-26T14:47:39;98866.98;;;12.95;50.76
44441;BME280;30146;52.268;20.944;2023-03-26T14:50:32;98866.75;;;12.96;51.02
44441;BME280;30146;52.268;20.944;2023-03-26T14:53:20;98863.80;;;12.97;51.05
44441;BME280;30146;52.268;20.944;2023-03-26T14:56:18;98863.06;;;12.94;50.88
44441;BME280;30146;52.268;20.944;2023-03-26T15:05:40;98861.67;;;12.82;51.00
44441;BME280;30146;52.268;20.944;2023-03-26T15:08:49;98863.33;;;12.75;50.97
44441;BME280;30146;52.268;20.944;2023-03-26T15:11:32;98862.94;;;12.64;50.92
44441;BME280;30146;52.268;20.944;2023-03-26T15:19:02;98864.77;;;12.37;51.09
44441;BME280;30146;52.268;20.944;2023-03-26T15:25:14;98866.38;;;12.21;51.49
44441;BME280;30146;52.268;20.944;2023-03-26T15:28:30;98866.42;;;12.16;51.48
44441;BME280;30146;52.268;20.944;2023-03-26T15:31:39;98864.42;;;12.14;51.64